createdAt,value
2023-04-25T00:00:18.451Z,96156.75
2023-04-25T00:02:45.040Z,96150.25
2023-04-25T00:05:12.049Z,96157.06
2023-04-25T00:07:38.714Z,96159.53
2023-04-25T00:10:05.958Z,96159.56
2023-04-25T00:12:32.375Z,96157.13
2023-04-25T00:14:59.122Z,96155.94
2023-04-25T00:17:26.571Z,96149.22
2023-04-25T00:19:53.543Z,96153.00
2023-04-25T00:22:19.936Z,96154.00
2023-04-25T00:24:46.313Z,96147.97
2023-04-25T00:27:12.837Z,96148.94
2023-04-25T00:29:39.309Z,96146.47
2023-04-25T00:32:05.893Z,96145.00
2023-04-25T00:34:32.365Z,96141.44
2023-04-25T00:36:58.835Z,96137.03
2023-04-25T00:39:25.256Z,96139.94
2023-04-25T00:41:54.160Z,96134.25
2023-04-25T00:44:21.079Z,96126.72
2023-04-25T00:46:48.605Z,96132.94
2023-04-25T00:49:17.212Z,96120.38
2023-04-25T00:51:45.717Z,96119.59
2023-04-25T00:54:13.069Z,96121.88
2023-04-25T00:56:39.683Z,96115.69
2023-04-25T00:59:06.529Z,96115.34
2023-04-25T01:01:33.370Z,96120.84
2023-04-25T01:04:00.492Z,96110.06
2023-04-25T01:06:26.969Z,96115.47
2023-04-25T01:08:53.354Z,96116.59
2023-04-25T01:11:19.775Z,96118.69
2023-04-25T01:13:46.292Z,96124.91
2023-04-25T01:16:13.875Z,96123.91
2023-04-25T01:18:41.382Z,96116.75
2023-04-25T01:21:08.657Z,96110.06
2023-04-25T01:23:35.192Z,96111.53
2023-04-25T01:26:01.951Z,96117.28
2023-04-25T01:28:28.903Z,96111.38
2023-04-25T01:30:55.751Z,96119.91
2023-04-25T01:33:22.658Z,96114.81
2023-04-25T01:35:49.099Z,96108.31
2023-04-25T01:38:15.727Z,96108.16
2023-04-25T01:40:42.413Z,96110.75
2023-04-25T01:43:13.097Z,96106.84
2023-04-25T01:45:42.519Z,96113.06
2023-04-25T01:48:10.744Z,96115.00
2023-04-25T01:50:38.087Z,96114.13
2023-04-25T01:53:05.192Z,96107.44
2023-04-25T01:55:31.611Z,96112.00
2023-04-25T01:57:58.047Z,96115.44
2023-04-25T02:00:24.487Z,96109.59
2023-04-25T02:02:51.818Z,96113.63
2023-04-25T02:05:18.741Z,96111.53
2023-04-25T02:07:45.106Z,96110.84
2023-04-25T02:10:11.507Z,96105.16
2023-04-25T02:12:38.713Z,96110.97
2023-04-25T02:15:05.452Z,96102.16
2023-04-25T02:17:32.777Z,96104.13
2023-04-25T02:19:59.167Z,96098.22
2023-04-25T02:22:25.567Z,96104.59
2023-04-25T02:24:52.013Z,96102.56
2023-04-25T02:27:18.485Z,96098.22
2023-04-25T02:29:44.906Z,96090.50
2023-04-25T02:32:11.649Z,96093.94
2023-04-25T02:34:38.536Z,96085.16
2023-04-25T02:37:04.976Z,96080.88
2023-04-25T02:39:31.360Z,96085.47
2023-04-25T02:41:57.827Z,96078.16
2023-04-25T02:44:24.230Z,96079.31
2023-04-25T02:46:50.771Z,96071.09
2023-04-25T02:49:17.208Z,96073.66
2023-04-25T02:51:43.649Z,96074.63
2023-04-25T02:54:10.083Z,96071.72
2023-04-25T02:56:36.483Z,96073.34
2023-04-25T02:59:02.848Z,96071.03
2023-04-25T03:01:29.221Z,96072.66
2023-04-25T03:03:55.869Z,96070.31
2023-04-25T03:06:22.359Z,96073.97
2023-04-25T03:08:48.753Z,96068.44
2023-04-25T03:11:15.121Z,96070.06
2023-04-25T03:13:41.499Z,96070.78
2023-04-25T03:16:07.931Z,96059.69
2023-04-25T03:18:34.396Z,96069.22
2023-04-25T03:21:00.822Z,96058.47
2023-04-25T03:23:27.259Z,96060.88
2023-04-25T03:25:53.795Z,96065.78
2023-04-25T03:28:20.981Z,96058.41
2023-04-25T03:30:47.386Z,96055.09
2023-04-25T03:33:13.826Z,96063.56
2023-04-25T03:35:40.308Z,96054.53
2023-04-25T03:38:06.788Z,96049.63
2023-04-25T03:40:33.170Z,96048.06
2023-04-25T03:42:59.551Z,96047.84
2023-04-25T03:45:26.007Z,96043.31
2023-04-25T03:47:52.493Z,96051.47
2023-04-25T03:50:18.955Z,96051.50
2023-04-25T03:52:45.351Z,96048.22
2023-04-25T03:55:11.799Z,96053.78
2023-04-25T03:57:38.197Z,96053.78
2023-04-25T04:00:05.283Z,96052.78
2023-04-25T04:02:32.346Z,96053.63
2023-04-25T04:04:58.990Z,96054.53
2023-04-25T04:07:25.560Z,96059.13
2023-04-25T04:09:51.968Z,96053.41
2023-04-25T04:12:18.363Z,96051.63
2023-04-25T04:14:44.771Z,96042.78
2023-04-25T04:17:11.214Z,96042.41
2023-04-25T04:19:37.601Z,96045.66
2023-04-25T04:22:03.977Z,96048.97
2023-04-25T04:24:30.370Z,96053.53
2023-04-25T04:26:57.894Z,96049.25
2023-04-25T04:29:24.303Z,96052.81
2023-04-25T04:31:51.623Z,96054.75
2023-04-25T04:34:19.393Z,96055.72
2023-04-25T04:36:47.201Z,96056.41
2023-04-25T04:39:14.859Z,96059.06
2023-04-25T04:41:41.487Z,96054.97
2023-04-25T04:44:09.904Z,96059.63
2023-04-25T04:46:38.825Z,96055.91
2023-04-25T04:49:09.759Z,96054.88
2023-04-25T04:51:36.553Z,96058.59
2023-04-25T04:54:03.434Z,96056.09
2023-04-25T04:56:31.933Z,96057.81
2023-04-25T04:58:58.713Z,96050.13
2023-04-25T05:01:26.330Z,96051.91
2023-04-25T05:03:53.626Z,96052.47
2023-04-25T05:06:20.732Z,96050.25
2023-04-25T05:08:47.243Z,96058.19
2023-04-25T05:11:13.632Z,96051.06
2023-04-25T05:13:40.009Z,96048.56
2023-04-25T05:16:06.731Z,96051.47
2023-04-25T05:18:33.162Z,96045.47
2023-04-25T05:20:59.519Z,96041.44
2023-04-25T05:23:26.022Z,96042.41
2023-04-25T05:25:52.408Z,96042.50
2023-04-25T05:28:18.799Z,96042.75
2023-04-25T05:30:45.255Z,96040.38
2023-04-25T05:33:11.690Z,96036.53
2023-04-25T05:35:38.152Z,96038.34
2023-04-25T05:38:04.646Z,96040.38
2023-04-25T05:40:30.978Z,96046.72
2023-04-25T05:42:57.360Z,96041.75
2023-04-25T05:45:24.083Z,96042.66
2023-04-25T05:47:50.867Z,96047.94
2023-04-25T05:50:17.361Z,96053.56
2023-04-25T05:52:43.778Z,96054.91
2023-04-25T05:55:10.218Z,96052.56
2023-04-25T05:57:36.674Z,96058.50
2023-04-25T06:00:04.251Z,96055.84
2023-04-25T06:02:30.827Z,96052.69
2023-04-25T06:04:57.597Z,96054.44
2023-04-25T06:07:24.242Z,96052.09
2023-04-25T06:09:50.680Z,96058.31
2023-04-25T06:12:17.092Z,96051.38
2023-04-25T06:14:43.478Z,96054.72
2023-04-25T06:17:09.930Z,96053.97
2023-04-25T06:19:36.848Z,96060.84
2023-04-25T06:22:03.230Z,96053.38
2023-04-25T06:24:30.372Z,96062.13
2023-04-25T06:26:56.757Z,96055.06
2023-04-25T06:29:23.218Z,96062.78
2023-04-25T06:31:49.975Z,96068.75
2023-04-25T06:34:16.421Z,96062.06
2023-04-25T06:36:42.821Z,96065.84
2023-04-25T06:39:10.015Z,96065.78
2023-04-25T06:41:36.526Z,96068.69
2023-04-25T06:44:02.931Z,96068.50
2023-04-25T06:46:29.363Z,96072.59
2023-04-25T06:48:56.276Z,96068.56
2023-04-25T06:51:24.317Z,96076.78
2023-04-25T06:53:51.097Z,96072.00
2023-04-25T06:56:17.614Z,96069.84
2023-04-25T06:58:44.490Z,96078.59
2023-04-25T07:01:10.980Z,96074.22
2023-04-25T07:03:38.798Z,96080.28
2023-04-25T07:06:05.497Z,96076.13
2023-04-25T07:08:31.916Z,96083.25
2023-04-25T07:10:58.334Z,96077.69
2023-04-25T07:13:24.834Z,96080.22
2023-04-25T07:15:51.224Z,96078.69
2023-04-25T07:18:17.606Z,96085.25
2023-04-25T07:20:44.527Z,96087.44
2023-04-25T07:23:11.070Z,96089.06
2023-04-25T07:25:37.517Z,96084.09
2023-04-25T07:28:03.880Z,96086.97
2023-04-25T07:30:30.312Z,96097.66
2023-04-25T07:32:56.874Z,96091.16
2023-04-25T07:35:23.510Z,96088.06
2023-04-25T07:37:49.914Z,96095.81
2023-04-25T07:40:17.558Z,96103.94
2023-04-25T07:42:44.000Z,96105.47
2023-04-25T07:45:10.700Z,96111.63
2023-04-25T07:47:37.326Z,96112.44
2023-04-25T07:50:04.543Z,96107.94
2023-04-25T07:52:30.971Z,96115.47
2023-04-25T07:54:58.515Z,96114.13
2023-04-25T07:57:25.325Z,96110.63
2023-04-25T07:59:51.890Z,96108.50
2023-04-25T08:02:18.263Z,96117.34
2023-04-25T08:04:45.436Z,96115.91
2023-04-25T08:07:12.006Z,96118.59
2023-04-25T08:09:38.498Z,96127.19
2023-04-25T08:12:05.159Z,96116.16
2023-04-25T08:14:36.622Z,96119.88
2023-04-25T08:17:04.613Z,96124.56
2023-04-25T08:19:32.314Z,96134.13
2023-04-25T08:21:58.874Z,96136.31
2023-04-25T08:24:26.282Z,96141.19
2023-04-25T08:26:52.927Z,96139.75
2023-04-25T08:29:19.313Z,96139.19
2023-04-25T08:31:45.834Z,96154.66
2023-04-25T08:34:12.518Z,96146.88
2023-04-25T08:36:40.431Z,96157.28
2023-04-25T08:39:07.965Z,96152.38
2023-04-25T08:41:34.526Z,96158.63
2023-04-25T08:44:01.938Z,96162.22
2023-04-25T08:46:28.865Z,96160.34
2023-04-25T08:48:59.042Z,96164.94
2023-04-25T08:51:26.854Z,96170.25
2023-04-25T08:53:54.396Z,96178.25
2023-04-25T08:56:26.243Z,96178.78
2023-04-25T08:58:53.097Z,96180.41
2023-04-25T09:01:19.788Z,96179.69
2023-04-25T09:03:48.193Z,96191.34
2023-04-25T09:06:15.281Z,96182.50
2023-04-25T09:08:41.757Z,96197.44
2023-04-25T09:11:08.627Z,96192.63
2023-04-25T09:13:35.230Z,96190.44
2023-04-25T09:16:01.957Z,96200.13
2023-04-25T09:18:30.261Z,96201.56
2023-04-25T09:21:01.799Z,96200.06
2023-04-25T09:23:28.577Z,96198.66
2023-04-25T09:25:55.023Z,96198.50
2023-04-25T09:28:27.367Z,96192.88
2023-04-25T09:31:01.008Z,96200.09
2023-04-25T09:33:31.396Z,96204.38
2023-04-25T09:36:08.669Z,96208.78
2023-04-25T09:38:45.553Z,96195.38
2023-04-25T09:41:12.461Z,96201.63
2023-04-25T09:43:39.323Z,96201.00
2023-04-25T09:46:12.956Z,96200.50
2023-04-25T09:48:39.446Z,96196.44
2023-04-25T09:51:14.822Z,96195.97
2023-04-25T09:53:43.270Z,96203.38
2023-04-25T09:56:10.652Z,96197.09
2023-04-25T09:58:37.835Z,96203.69
2023-04-25T10:01:05.178Z,96199.97
2023-04-25T10:03:32.942Z,96210.88
2023-04-25T10:06:04.322Z,96197.88
2023-04-25T10:08:32.982Z,96202.09
2023-04-25T10:11:01.301Z,96200.59
2023-04-25T10:13:29.001Z,96196.72
2023-04-25T10:15:56.023Z,96199.59
2023-04-25T10:18:22.574Z,96204.97
2023-04-25T10:20:50.035Z,96197.41
2023-04-25T10:23:17.997Z,96204.56
2023-04-25T10:25:44.863Z,96206.88
2023-04-25T10:28:11.518Z,96205.97
2023-04-25T10:30:37.983Z,96212.38
2023-04-25T10:33:17.108Z,96210.06
2023-04-25T10:35:45.846Z,96192.25
2023-04-25T10:38:14.617Z,96194.16
2023-04-25T10:40:41.003Z,96195.34
2023-04-25T10:43:27.512Z,96185.75
2023-04-25T10:45:53.905Z,96192.75
2023-04-25T10:48:30.567Z,96188.53
2023-04-25T10:51:09.782Z,96191.44
2023-04-25T10:53:36.376Z,96196.13
2023-04-25T10:56:19.789Z,96196.84
2023-04-25T10:58:47.245Z,96179.34
2023-04-25T11:01:16.512Z,96185.41
2023-04-25T11:03:46.661Z,96174.66
2023-04-25T11:06:33.462Z,96177.13
2023-04-25T11:09:01.871Z,96183.78
2023-04-25T11:11:30.085Z,96187.25
2023-04-25T11:13:56.452Z,96183.94
2023-04-25T11:16:28.327Z,96176.72
2023-04-25T11:18:58.048Z,96184.00
2023-04-25T11:21:24.733Z,96182.41
2023-04-25T11:23:53.416Z,96177.06
2023-04-25T11:26:21.469Z,96171.22
2023-04-25T11:28:49.896Z,96164.88
2023-04-25T11:31:16.574Z,96163.13
2023-04-25T11:33:43.643Z,96157.41
2023-04-25T11:36:10.648Z,96170.97
2023-04-25T11:38:37.060Z,96169.38
2023-04-25T11:41:03.492Z,96166.59
2023-04-25T11:43:29.990Z,96174.72
2023-04-25T11:45:56.653Z,96171.03
2023-04-25T11:48:25.849Z,96179.53
2023-04-25T11:50:52.890Z,96187.59
2023-04-25T11:53:19.377Z,96179.88
2023-04-25T11:55:46.280Z,96183.97
2023-04-25T11:58:14.758Z,96189.72
2023-04-25T12:00:42.964Z,96189.91
2023-04-25T12:03:18.543Z,96193.63
2023-04-25T12:05:46.119Z,96181.91
2023-04-25T12:08:13.242Z,96180.31
2023-04-25T12:10:44.023Z,96177.72
2023-04-25T12:13:24.101Z,96176.72
2023-04-25T12:15:51.473Z,96172.25
2023-04-25T12:18:22.232Z,96179.91
2023-04-25T12:20:48.670Z,96191.47
2023-04-25T12:23:15.178Z,96191.28
2023-04-25T12:25:43.087Z,96183.78
2023-04-25T12:28:13.157Z,96193.88
2023-04-25T12:31:00.050Z,96190.75
2023-04-25T12:33:28.537Z,96190.13
2023-04-25T12:35:55.262Z,96198.13
2023-04-25T12:38:23.081Z,96187.13
2023-04-25T12:40:49.475Z,96182.16
2023-04-25T12:43:16.116Z,96203.25
2023-04-25T12:45:42.498Z,96208.69
2023-04-25T12:48:09.111Z,96211.13
2023-04-25T12:50:35.559Z,96202.50
2023-04-25T12:53:02.982Z,96199.22
2023-04-25T12:55:29.449Z,96200.28
2023-04-25T12:57:55.854Z,96211.91
2023-04-25T13:00:22.261Z,96203.13
2023-04-25T13:02:48.791Z,96193.94
2023-04-25T13:05:15.333Z,96193.50
2023-04-25T13:07:42.032Z,96212.06
2023-04-25T13:10:08.643Z,96217.19
2023-04-25T13:12:35.075Z,96219.22
2023-04-25T13:15:01.494Z,96225.16
2023-04-25T13:17:28.808Z,96232.19
2023-04-25T13:19:55.403Z,96234.25
2023-04-25T13:22:22.833Z,96237.84
2023-04-25T13:24:49.187Z,96234.09
2023-04-25T13:27:15.640Z,96242.47
2023-04-25T13:29:42.647Z,96237.53
2023-04-25T13:32:10.098Z,96236.69
2023-04-25T13:34:38.316Z,96255.28
2023-04-25T13:37:04.721Z,96250.34
2023-04-25T13:39:31.122Z,96256.19
2023-04-25T13:42:10.709Z,96262.50
2023-04-25T13:44:37.035Z,96259.84
2023-04-25T13:47:03.730Z,96267.31
2023-04-25T13:49:30.191Z,96273.66
2023-04-25T13:51:56.605Z,96269.19
2023-04-25T13:54:23.748Z,96266.75
2023-04-25T13:56:50.400Z,96264.75
2023-04-25T13:59:17.130Z,96267.97
2023-04-25T14:01:43.698Z,96269.78
2023-04-25T14:04:10.274Z,96273.44
2023-04-25T14:06:36.764Z,96276.91
2023-04-25T14:09:05.229Z,96279.53
2023-04-25T14:11:31.632Z,96282.16
2023-04-25T14:13:58.002Z,96287.22
2023-04-25T14:16:24.554Z,96291.28
2023-04-25T14:18:51.264Z,96290.69
2023-04-25T14:21:17.654Z,96297.72
2023-04-25T14:23:44.033Z,96299.75
2023-04-25T14:26:13.533Z,96300.78
2023-04-25T14:28:40.083Z,96310.09
2023-04-25T14:31:06.540Z,96313.31
2023-04-25T14:33:32.970Z,96314.19
2023-04-25T14:35:59.364Z,96315.16
2023-04-25T14:38:26.629Z,96317.16
2023-04-25T14:40:54.845Z,96314.06
2023-04-25T14:43:21.224Z,96327.63
2023-04-25T14:45:47.732Z,96322.50
2023-04-25T14:48:14.289Z,96330.28
2023-04-25T14:50:40.920Z,96326.59
2023-04-25T14:53:07.379Z,96342.25
2023-04-25T14:55:34.783Z,96340.59
2023-04-25T14:58:02.046Z,96333.72
2023-04-25T15:00:28.555Z,96341.44
2023-04-25T15:02:57.077Z,96342.34
2023-04-25T15:05:23.906Z,96330.91
2023-04-25T15:07:50.665Z,96336.94
2023-04-25T15:10:18.101Z,96336.88
2023-04-25T15:12:46.898Z,96342.25
2023-04-25T15:15:17.569Z,96336.78
2023-04-25T15:17:51.754Z,96342.38
2023-04-25T15:20:18.197Z,96348.00
2023-04-25T15:22:45.900Z,96355.88
2023-04-25T15:25:12.758Z,96352.03
2023-04-25T15:27:42.731Z,96346.06
2023-04-25T15:30:12.190Z,96355.25
2023-04-25T15:32:38.647Z,96353.72
2023-04-25T15:35:06.970Z,96357.88
2023-04-25T15:37:34.937Z,96356.97
2023-04-25T15:40:10.068Z,96353.69
2023-04-25T15:42:39.896Z,96363.28
2023-04-25T15:45:07.510Z,96368.22
2023-04-25T15:47:38.190Z,96362.72
2023-04-25T15:50:06.497Z,96375.31
2023-04-25T15:52:33.144Z,96372.06
2023-04-25T15:54:59.617Z,96372.56
2023-04-25T15:57:26.276Z,96380.75
2023-04-25T15:59:52.691Z,96370.94
2023-04-25T16:02:19.683Z,96378.72
2023-04-25T16:04:47.113Z,96379.50
2023-04-25T16:07:14.376Z,96386.44
2023-04-25T16:09:41.114Z,96385.88
2023-04-25T16:12:08.544Z,96384.56
2023-04-25T16:14:34.956Z,96389.81
2023-04-25T16:17:01.337Z,96387.75
2023-04-25T16:19:29.728Z,96394.03
2023-04-25T16:21:56.362Z,96395.81
2023-04-25T16:24:23.210Z,96396.56
2023-04-25T16:26:49.612Z,96401.91
2023-04-25T16:29:17.704Z,96406.53
2023-04-25T16:31:44.568Z,96409.00
2023-04-25T16:34:11.012Z,96401.97
2023-04-25T16:36:37.474Z,96407.22
2023-04-25T16:39:03.959Z,96412.47
2023-04-25T16:41:30.464Z,96428.69
2023-04-25T16:43:56.854Z,96418.50
2023-04-25T16:46:23.881Z,96429.91
2023-04-25T16:48:50.538Z,96436.75
2023-04-25T16:51:17.140Z,96426.03
2023-04-25T16:53:43.776Z,96434.53
2023-04-25T16:56:10.264Z,96434.25
2023-04-25T16:58:36.690Z,96433.84
2023-04-25T17:01:03.187Z,96438.75
2023-04-25T17:03:29.842Z,96441.53
2023-04-25T17:05:57.477Z,96444.25
2023-04-25T17:08:24.349Z,96449.50
2023-04-25T17:10:50.866Z,96449.31
2023-04-25T17:13:17.324Z,96439.19
2023-04-25T17:15:43.821Z,96446.88
2023-04-25T17:18:10.983Z,96448.50
2023-04-25T17:20:37.761Z,96444.97
2023-04-25T17:23:04.228Z,96455.72
2023-04-25T17:25:31.243Z,96451.94
2023-04-25T17:27:57.653Z,96459.56
2023-04-25T17:30:24.181Z,96464.34
2023-04-25T17:32:50.629Z,96470.00
2023-04-25T17:35:17.116Z,96461.59
2023-04-25T17:37:43.910Z,96466.66
2023-04-25T17:40:13.229Z,96469.03
2023-04-25T17:42:39.692Z,96474.81
2023-04-25T17:45:06.575Z,96481.06
2023-04-25T17:47:33.224Z,96481.25
2023-04-25T17:49:59.754Z,96479.72
2023-04-25T17:52:28.651Z,96477.56
2023-04-25T17:54:55.042Z,96480.38
2023-04-25T17:57:25.283Z,96483.19
2023-04-25T17:59:51.888Z,96495.25
2023-04-25T18:02:18.390Z,96497.41
2023-04-25T18:04:45.013Z,96493.44
2023-04-25T18:07:11.500Z,96497.47
2023-04-25T18:09:38.052Z,96502.53
2023-04-25T18:12:04.647Z,96503.53
2023-04-25T18:14:31.717Z,96501.69
2023-04-25T18:16:58.133Z,96511.84
2023-04-25T18:19:24.530Z,96513.00
2023-04-25T18:21:54.218Z,96511.81
2023-04-25T18:24:21.477Z,96520.38
2023-04-25T18:26:48.750Z,96527.91
2023-04-25T18:29:29.008Z,96536.88
2023-04-25T18:31:58.463Z,96544.38
2023-04-25T18:34:27.143Z,96547.72
2023-04-25T18:36:56.013Z,96545.78
2023-04-25T18:39:24.307Z,96547.38
2023-04-25T18:41:58.158Z,96560.38
2023-04-25T18:44:28.229Z,96552.66
2023-04-25T18:46:54.748Z,96562.84
2023-04-25T18:49:22.422Z,96570.19
2023-04-25T18:51:49.102Z,96575.28
2023-04-25T18:54:15.680Z,96585.28
2023-04-25T18:56:42.086Z,96580.91
2023-04-25T18:59:08.522Z,96591.34
2023-04-25T19:01:35.287Z,96592.16
2023-04-25T19:04:05.167Z,96602.84
2023-04-25T19:06:33.096Z,96609.25
2023-04-25T19:08:59.472Z,96599.88
2023-04-25T19:11:25.907Z,96608.41
2023-04-25T19:13:55.578Z,96610.41
2023-04-25T19:16:22.418Z,96609.25
2023-04-25T19:18:49.094Z,96606.63
2023-04-25T19:21:15.717Z,96601.88
2023-04-25T19:23:42.096Z,96597.59
2023-04-25T19:26:08.558Z,96596.00
2023-04-25T19:28:35.345Z,96595.53
2023-04-25T19:31:01.812Z,96589.66
2023-04-25T19:33:28.480Z,96596.00
2023-04-25T19:35:55.073Z,96604.03
2023-04-25T19:38:21.729Z,96604.56
2023-04-25T19:40:49.168Z,96598.66
2023-04-25T19:43:15.937Z,96604.19
2023-04-25T19:45:42.546Z,96611.44
2023-04-25T19:48:10.437Z,96618.28
2023-04-25T19:50:39.332Z,96626.50
2023-04-25T19:53:06.020Z,96613.72
2023-04-25T19:55:32.887Z,96624.69
2023-04-25T19:57:59.400Z,96616.50
2023-04-25T20:00:25.782Z,96621.06
2023-04-25T20:02:52.717Z,96617.34
2023-04-25T20:05:19.219Z,96625.50
2023-04-25T20:07:46.012Z,96641.19
2023-04-25T20:10:16.455Z,96636.28
2023-04-25T20:12:44.353Z,96648.72
2023-04-25T20:15:11.795Z,96651.63
2023-04-25T20:17:45.277Z,96646.06
2023-04-25T20:20:12.262Z,96642.81
2023-04-25T20:22:40.277Z,96648.41
2023-04-25T20:25:08.260Z,96656.72
2023-04-25T20:27:34.705Z,96646.22
2023-04-25T20:30:05.028Z,96653.44
2023-04-25T20:32:34.613Z,96647.56
2023-04-25T20:35:02.172Z,96641.50
2023-04-25T20:37:31.437Z,96650.03
2023-04-25T20:40:01.473Z,96644.13
2023-04-25T20:42:28.164Z,96643.97
2023-04-25T20:44:54.711Z,96645.09
2023-04-25T20:47:21.241Z,96652.81
2023-04-25T20:49:47.971Z,96649.69
2023-04-25T20:52:14.398Z,96648.06
2023-04-25T20:54:41.577Z,96645.78
2023-04-25T20:57:08.065Z,96643.31
2023-04-25T20:59:34.441Z,96652.47
2023-04-25T21:02:00.944Z,96648.91
2023-04-25T21:04:27.601Z,96655.25
2023-04-25T21:06:54.072Z,96655.41
2023-04-25T21:09:20.455Z,96660.50
2023-04-25T21:11:47.741Z,96659.00
2023-04-25T21:14:14.160Z,96660.97
2023-04-25T21:16:42.525Z,96654.28
2023-04-25T21:19:09.569Z,96669.66
2023-04-25T21:21:36.178Z,96669.16
2023-04-25T21:24:02.591Z,96670.13
2023-04-25T21:26:29.011Z,96673.22
2023-04-25T21:28:55.451Z,96667.31
2023-04-25T21:31:22.207Z,96679.09
2023-04-25T21:33:48.591Z,96677.91
2023-04-25T21:36:14.951Z,96678.75
2023-04-25T21:38:41.343Z,96675.81
2023-04-25T21:41:07.730Z,96678.13
2023-04-25T21:43:34.098Z,96681.34
2023-04-25T21:48:29.836Z,96681.97
2023-04-25T21:50:56.457Z,96688.41
2023-04-25T21:53:22.930Z,96691.00
2023-04-25T21:55:49.343Z,96695.41
2023-04-25T21:58:15.820Z,96684.94
2023-04-25T22:00:42.598Z,96686.91
2023-04-25T22:03:09.375Z,96691.94
2023-04-25T22:05:36.739Z,96687.84
2023-04-25T22:08:03.705Z,96684.44
2023-04-25T22:10:30.148Z,96696.34
2023-04-25T22:12:56.732Z,96694.88
2023-04-25T22:15:26.339Z,96704.84
2023-04-25T22:17:55.267Z,96704.56
2023-04-25T22:20:26.008Z,96704.78
2023-04-25T22:22:52.963Z,96706.41
2023-04-25T22:25:19.569Z,96708.19
2023-04-25T22:27:45.997Z,96709.31
2023-04-25T22:30:15.374Z,96710.97
2023-04-25T22:32:42.176Z,96718.00
2023-04-25T22:35:09.267Z,96716.16
2023-04-25T22:37:35.980Z,96721.69
2023-04-25T22:40:06.805Z,96716.78
2023-04-25T22:42:37.072Z,96718.41
2023-04-25T22:45:04.588Z,96719.34
2023-04-25T22:47:31.104Z,96716.63
2023-04-25T22:49:57.949Z,96718.94
2023-04-25T22:52:24.346Z,96721.19
2023-04-25T22:54:50.730Z,96708.22
2023-04-25T22:57:17.189Z,96708.94
2023-04-25T22:59:44.190Z,96711.88
2023-04-25T23:02:10.656Z,96723.91
2023-04-25T23:04:37.768Z,96726.78
2023-04-25T23:07:04.243Z,96728.06
2023-04-25T23:09:30.933Z,96733.53
2023-04-25T23:11:57.397Z,96725.84
2023-04-25T23:14:24.673Z,96716.28
2023-04-25T23:16:51.169Z,96722.28
2023-04-25T23:19:17.847Z,96724.84
2023-04-25T23:21:44.232Z,96723.06
2023-04-25T23:24:10.977Z,96717.78
2023-04-25T23:26:37.352Z,96713.38
2023-04-25T23:29:05.112Z,96714.88
2023-04-25T23:31:31.546Z,96710.00
2023-04-25T23:33:58.078Z,96714.66
2023-04-25T23:36:24.858Z,96720.31
2023-04-25T23:38:52.440Z,96720.03
2023-04-25T23:41:19.012Z,96727.59
2023-04-25T23:43:45.754Z,96723.88
2023-04-25T23:46:12.515Z,96725.22
2023-04-25T23:48:39.054Z,96731.56
2023-04-25T23:51:05.443Z,96729.94
2023-04-25T23:53:31.888Z,96723.34
2023-04-25T23:55:58.305Z,96728.28
2023-04-25T23:58:24.853Z,96727.03
